createdAt,value
2022-08-27T00:01:52.539Z,96898.28
2022-08-27T00:04:22.273Z,96904.28
2022-08-27T00:06:50.963Z,96899.00
2022-08-27T00:09:26.752Z,96898.28
2022-08-27T00:11:55.977Z,96899.41
2022-08-27T00:14:24.780Z,96903.69
2022-08-27T00:16:53.270Z,96902.13
2022-08-27T00:19:23.205Z,96904.75
2022-08-27T00:21:51.496Z,96909.44
2022-08-27T00:24:19.778Z,96902.94
2022-08-27T00:26:48.182Z,96903.38
2022-08-27T00:29:16.650Z,96893.00
2022-08-27T00:31:45.318Z,96897.19
2022-08-27T00:34:20.312Z,96891.47
2022-08-27T00:36:51.138Z,96900.28
2022-08-27T00:39:19.729Z,96892.28
2022-08-27T00:41:48.510Z,96890.03
2022-08-27T00:44:16.932Z,96896.06
2022-08-27T00:46:48.075Z,96901.38
2022-08-27T00:49:20.926Z,96897.66
2022-08-27T00:51:54.393Z,96899.19
2022-08-27T00:54:23.394Z,96904.44
2022-08-27T00:56:52.063Z,96900.59
2022-08-27T00:59:23.043Z,96896.25
2022-08-27T01:02:20.564Z,96902.16
2022-08-27T01:04:51.347Z,96903.47
2022-08-27T01:07:22.345Z,96901.94
2022-08-27T01:09:51.464Z,96897.56
2022-08-27T01:12:21.027Z,96898.06
2022-08-27T01:14:49.542Z,96897.97
2022-08-27T01:17:18.565Z,96910.19
2022-08-27T01:19:49.196Z,96906.09
2022-08-27T01:22:29.518Z,96910.03
2022-08-27T01:25:01.615Z,96907.34
2022-08-27T01:27:32.371Z,96912.41
2022-08-27T01:30:00.650Z,96914.63
2022-08-27T01:32:33.023Z,96911.56
2022-08-27T01:35:01.885Z,96919.13
2022-08-27T01:37:30.188Z,96914.50
2022-08-27T01:39:59.894Z,96919.88
2022-08-27T01:42:30.477Z,96921.59
2022-08-27T01:45:00.677Z,96930.19
2022-08-27T01:47:31.052Z,96927.03
2022-08-27T01:50:00.391Z,96929.53
2022-08-27T01:52:31.047Z,96924.09
2022-08-27T01:55:01.181Z,96924.03
2022-08-27T01:57:29.619Z,96914.50
2022-08-27T01:59:58.221Z,96916.59
2022-08-27T02:02:27.137Z,96919.19
2022-08-27T02:04:55.508Z,96918.09
2022-08-27T02:07:23.902Z,96925.31
2022-08-27T02:09:52.366Z,96918.03
2022-08-27T02:12:22.089Z,96921.94
2022-08-27T02:14:50.375Z,96915.72
2022-08-27T02:17:18.646Z,96919.09
2022-08-27T02:19:46.908Z,96918.69
2022-08-27T02:22:15.175Z,96915.97
2022-08-27T02:24:43.472Z,96916.50
2022-08-27T02:27:11.920Z,96915.06
2022-08-27T02:29:41.541Z,96915.72
2022-08-27T02:32:22.456Z,96918.22
2022-08-27T02:34:58.689Z,96921.72
2022-08-27T02:37:26.988Z,96915.34
2022-08-27T02:39:55.338Z,96918.72
2022-08-27T02:42:23.597Z,96920.91
2022-08-27T02:44:55.070Z,96925.06
2022-08-27T02:47:23.356Z,96927.56
2022-08-27T02:49:51.617Z,96917.47
2022-08-27T02:52:22.822Z,96924.84
2022-08-27T02:54:54.037Z,96917.13
2022-08-27T02:57:22.907Z,96919.03
2022-08-27T02:59:51.313Z,96921.38
2022-08-27T03:02:21.384Z,96923.16
2022-08-27T03:04:51.398Z,96931.38
2022-08-27T03:07:19.873Z,96929.47
2022-08-27T03:09:48.127Z,96932.84
2022-08-27T03:12:17.376Z,96935.28
2022-08-27T03:14:46.182Z,96941.63
2022-08-27T03:17:28.495Z,96930.75
2022-08-27T03:19:58.139Z,96925.13
2022-08-27T03:22:27.109Z,96924.84
2022-08-27T03:24:56.527Z,96919.09
2022-08-27T03:27:24.908Z,96921.97
2022-08-27T03:29:53.230Z,96929.47
2022-08-27T03:32:21.547Z,96928.41
2022-08-27T03:34:49.889Z,96922.50
2022-08-27T03:37:19.570Z,96926.00
2022-08-27T03:39:47.923Z,96928.63
2022-08-27T03:42:16.258Z,96908.84
2022-08-27T03:44:45.102Z,96916.47
2022-08-27T03:47:13.447Z,96916.25
2022-08-27T03:49:41.987Z,96910.34
2022-08-27T03:52:10.708Z,96911.69
2022-08-27T03:54:40.435Z,96910.31
2022-08-27T03:57:08.827Z,96917.72
2022-08-27T03:59:37.120Z,96914.75
2022-08-27T04:02:05.862Z,96916.44
2022-08-27T04:04:34.188Z,96915.34
2022-08-27T04:07:02.722Z,96912.84
2022-08-27T04:09:31.024Z,96914.13
2022-08-27T04:12:00.634Z,96919.72
2022-08-27T04:14:29.148Z,96911.72
2022-08-27T04:16:57.962Z,96918.56
2022-08-27T04:19:28.550Z,96929.13
2022-08-27T04:22:01.751Z,96927.41
2022-08-27T04:24:31.938Z,96924.06
2022-08-27T04:27:02.104Z,96929.03
2022-08-27T04:29:31.852Z,96926.81
2022-08-27T04:32:01.142Z,96917.63
2022-08-27T04:34:29.413Z,96920.13
2022-08-27T04:36:58.412Z,96920.69
2022-08-27T04:39:26.902Z,96921.06
2022-08-27T04:41:56.662Z,96925.34
2022-08-27T04:44:28.231Z,96931.03
2022-08-27T04:46:57.672Z,96918.91
2022-08-27T04:49:27.451Z,96931.28
2022-08-27T04:51:56.488Z,96932.88
2022-08-27T04:54:32.411Z,96928.53
2022-08-27T04:57:01.805Z,96931.59
2022-08-27T04:59:31.757Z,96939.69
2022-08-27T05:02:00.028Z,96935.19
2022-08-27T05:04:31.926Z,96939.41
2022-08-27T05:07:01.565Z,96948.53
2022-08-27T05:09:29.810Z,96941.19
2022-08-27T05:11:58.076Z,96943.03
2022-08-27T05:14:30.144Z,96947.88
2022-08-27T05:17:00.459Z,96954.63
2022-08-27T05:19:29.176Z,96942.81
2022-08-27T05:21:57.550Z,96940.81
2022-08-27T05:24:25.903Z,96945.16
2022-08-27T05:26:54.371Z,96941.88
2022-08-27T05:29:22.580Z,96942.09
2022-08-27T05:31:51.015Z,96947.56
2022-08-27T05:34:25.618Z,96944.25
2022-08-27T05:36:54.996Z,96943.63
2022-08-27T05:39:23.280Z,96951.13
2022-08-27T05:41:53.024Z,96946.59
2022-08-27T05:47:10.208Z,96959.13
2022-08-27T05:49:40.120Z,96945.13
2022-08-27T05:52:11.876Z,96945.84
2022-08-27T05:54:40.882Z,96951.91
2022-08-27T05:57:09.149Z,96952.22
2022-08-27T05:59:55.174Z,96956.94
2022-08-27T06:02:23.664Z,96955.97
2022-08-27T06:04:53.627Z,96947.41
2022-08-27T06:07:22.249Z,96949.13
2022-08-27T06:09:50.473Z,96957.66
2022-08-27T06:12:18.768Z,96948.38
2022-08-27T06:14:46.950Z,96956.56
2022-08-27T06:17:15.282Z,96954.72
2022-08-27T06:19:45.820Z,96956.81
2022-08-27T06:22:15.882Z,96958.03
2022-08-27T06:24:44.195Z,96966.50
2022-08-27T06:27:16.231Z,96952.44
2022-08-27T06:29:45.205Z,96966.63
2022-08-27T06:32:14.826Z,96962.72
2022-08-27T06:34:43.258Z,96963.06
2022-08-27T06:37:11.549Z,96972.38
2022-08-27T06:39:41.885Z,96968.28
2022-08-27T06:42:13.317Z,96967.03
2022-08-27T06:44:41.747Z,96963.31
2022-08-27T06:47:10.019Z,96969.31
2022-08-27T06:49:40.896Z,96974.34
2022-08-27T06:52:09.262Z,96980.84
2022-08-27T06:54:37.589Z,96978.34
2022-08-27T06:57:08.039Z,96982.41
2022-08-27T06:59:36.339Z,96976.38
